Time;durP1;ratioP1;P1;durP2;ratioP2;P2;SDS_P1;SDS_P2;PMS_P1;PMS_P2;Temp;Humidity;BMP_temperature;BMP_pressure;BME280_temperature;BME280_humidity;BME280_pressure;Samples;Min_cycle;Max_cycle;Signal;HPM_P1;HPM_P2
2023/03/31 00:02:14;;;;;;;16.70;9.47;;;11.10;59.90;;;11.16;45.93;94917.00;5013786;28;20998;-62
2023/03/31 00:04:44;;;;;;;19.70;8.30;;;11.10;60.30;;;11.12;46.38;94919.94;5011882;28;20485;-56
2023/03/31 00:07:13;;;;;;;16.17;9.13;;;11.00;61.10;;;11.09;46.26;94912.31;5014186;28;20496;-58
2023/03/31 00:09:44;;;;;;;13.20;8.13;;;11.00;60.80;;;11.08;46.43;94918.53;5013053;28;20552;-57
2023/03/31 00:12:13;;;;;;;18.27;9.40;;;11.00;60.90;;;11.06;46.68;94896.81;5014296;28;20539;-63
2023/03/31 00:14:40;;;;;;;21.90;10.97;;;11.00;61.80;;;11.04;46.53;94906.63;5011868;28;20456;-57
2023/03/31 00:17:08;;;;;;;21.17;10.47;;;11.00;61.20;;;11.02;46.43;94911.22;5020248;28;20473;-63
2023/03/31 00:19:37;;;;;;;22.73;9.93;;;10.90;61.10;;;11.01;46.18;94895.56;5019371;28;20460;-56
2023/03/31 00:22:05;;;;;;;21.47;10.23;;;10.90;60.80;;;11.02;46.51;94903.31;5012536;28;20851;-57
2023/03/31 00:24:32;;;;;;;17.97;10.10;;;10.90;61.30;;;11.03;46.73;94902.34;5017424;28;20795;-56
2023/03/31 00:27:00;;;;;;;19.73;10.73;;;10.90;61.80;;;11.04;46.40;94903.16;5019467;28;20521;-63
2023/03/31 00:29:28;;;;;;;23.30;11.00;;;10.90;61.10;;;11.04;46.32;94904.00;5014601;28;20540;-56
2023/03/31 00:31:55;;;;;;;22.77;11.30;;;10.90;61.40;;;11.04;46.69;94898.72;5013882;28;20500;-57
2023/03/31 00:34:23;;;;;;;34.37;10.90;;;10.90;61.60;;;11.05;46.53;94896.94;5013692;28;20480;-63
2023/03/31 00:36:55;;;;;;;22.57;10.20;;;10.90;61.90;;;11.05;46.42;94892.50;5012630;28;20483;-57
2023/03/31 00:39:23;;;;;;;17.37;10.17;;;10.90;61.10;;;11.07;46.52;94895.00;5018996;28;20451;-56
2023/03/31 00:41:51;;;;;;;19.93;10.13;;;11.00;61.70;;;11.10;46.46;94892.91;5012000;28;20481;-57
2023/03/31 00:44:21;;;;;;;19.70;8.80;;;11.00;61.70;;;11.13;46.65;94895.25;5015485;28;20456;-57
2023/03/31 00:46:52;;;;;;;14.40;8.50;;;11.00;62.10;;;11.16;46.45;94882.78;5015777;28;20611;-57
2023/03/31 00:49:25;;;;;;;18.37;8.23;;;11.00;61.60;;;11.19;46.77;94882.50;5014058;28;20452;-57
2023/03/31 00:51:56;;;;;;;16.23;7.73;;;11.10;62.20;;;11.21;46.26;94881.38;5015840;28;20834;-59
2023/03/31 00:54:25;;;;;;;12.63;7.77;;;11.10;61.50;;;11.23;46.49;94875.97;5010746;28;20454;-57
2023/03/31 00:56:54;;;;;;;18.63;7.83;;;11.10;61.80;;;11.23;46.26;94876.81;5016326;28;20990;-57
2023/03/31 00:59:22;;;;;;;13.13;6.87;;;11.10;61.50;;;11.23;46.36;94874.19;5017593;28;20463;-62
2023/03/31 01:01:51;;;;;;;13.27;6.67;;;11.10;61.50;;;11.24;46.61;94865.28;5016610;28;20500;-57
2023/03/31 01:04:21;;;;;;;11.00;6.77;;;11.10;62.10;;;11.26;46.38;94873.88;5016563;28;20491;-55
2023/03/31 01:06:59;;;;;;;13.03;6.10;;;11.10;61.60;;;11.27;46.45;94867.63;5017182;28;20525;-56
2023/03/31 01:09:33;;;;;;;7.67;5.27;;;11.10;62.20;;;11.27;46.24;94865.00;5014572;28;20540;-63
2023/03/31 01:12:02;;;;;;;10.80;6.40;;;11.20;62.00;;;11.28;46.49;94861.41;5016344;28;20898;-62
2023/03/31 01:14:31;;;;;;;6.90;5.00;;;11.20;61.80;;;11.29;46.46;94856.94;5017224;28;20552;-65
2023/03/31 01:16:58;;;;;;;14.53;5.80;;;11.10;61.90;;;11.30;46.61;94858.63;5013963;28;21048;-62
2023/03/31 01:19:32;;;;;;;9.67;6.70;;;11.20;62.00;;;11.31;45.99;94868.19;5017008;28;20464;-56
2023/03/31 01:22:51;;;;;;;10.23;5.60;;;11.20;61.80;;;11.32;47.17;94871.63;5018706;28;20482;-56
2023/03/31 01:25:44;;;;;;;13.50;5.20;;;11.20;62.20;;;11.33;46.51;94876.75;4999859;28;20493;-63
2023/03/31 01:28:26;;;;;;;11.37;6.30;;;11.20;61.90;;;11.29;46.82;94873.59;5017304;28;20449;-55
2023/03/31 01:31:52;;;;;;;17.30;7.10;;;11.20;62.30;;;11.29;47.14;94873.59;5014924;28;20481;-62
2023/03/31 01:35:13;;;;;;;10.90;6.47;;;11.20;62.70;;;11.30;46.55;94874.41;4934184;29;20511;-63
2023/03/31 01:38:11;;;;;;;9.30;5.07;;;11.20;62.20;;;11.29;46.43;94881.50;4852815;29;20547;-62
2023/03/31 01:40:57;;;;;;;8.10;3.20;;;11.20;61.70;;;11.34;45.90;94880.22;5013957;28;20489;-64
2023/03/31 01:43:28;;;;;;;6.70;2.70;;;11.20;61.40;;;11.38;45.60;94882.41;5017107;28;20541;-64
2023/03/31 01:45:59;;;;;;;5.90;2.40;;;11.20;60.80;;;11.47;45.36;94881.56;5013209;28;20529;-58
2023/03/31 01:48:35;;;;;;;8.90;2.37;;;11.30;60.40;;;11.55;44.91;94887.91;5012501;28;20441;-56
2023/03/31 01:51:04;;;;;;;4.60;2.73;;;11.40;60.00;;;11.63;44.94;94888.84;5013307;28;20480;-64
2023/03/31 01:53:34;;;;;;;4.17;2.20;;;11.50;59.80;;;11.72;44.73;94895.03;5010501;28;20458;-67
2023/03/31 01:56:05;;;;;;;9.27;2.40;;;11.60;59.60;;;11.82;44.50;94900.28;5008954;28;20473;-63
2023/03/31 01:58:35;;;;;;;4.00;2.77;;;11.60;59.30;;;11.90;44.28;94900.34;5014752;28;20453;-63
2023/03/31 02:01:10;;;;;;;3.50;2.27;;;11.70;58.90;;;12.00;43.78;94897.69;5010411;28;20482;-57
2023/03/31 02:03:40;;;;;;;4.20;2.17;;;11.80;58.40;;;12.08;43.63;94892.50;5010887;28;20457;-57
2023/03/31 02:06:10;;;;;;;2.40;1.33;;;11.90;58.10;;;12.16;42.98;94897.88;5010008;28;20512;-64
2023/03/31 02:08:40;;;;;;;2.83;1.90;;;12.00;57.60;;;12.24;42.99;94905.03;5012825;28;20514;-63
2023/03/31 02:11:09;;;;;;;5.30;1.70;;;12.10;57.40;;;12.34;42.56;94907.59;5013811;28;20563;-56
2023/03/31 02:13:37;;;;;;;2.97;1.70;;;12.10;57.00;;;12.41;42.39;94919.22;5018318;28;20462;-63
2023/03/31 02:16:08;;;;;;;11.10;1.27;;;12.20;57.00;;;12.48;42.34;94914.16;5014183;28;20781;-65
2023/03/31 02:18:37;;;;;;;1.80;1.40;;;12.30;56.60;;;12.53;42.00;94915.38;5009421;28;20466;-61
2023/03/31 02:21:04;;;;;;;8.87;1.90;;;12.40;56.50;;;12.58;42.20;94912.28;5011409;28;21012;-63
2023/03/31 02:23:31;;;;;;;2.80;1.67;;;12.40;56.70;;;12.63;42.34;94925.84;5012911;28;20457;-63
2023/03/31 02:26:02;;;;;;;11.27;1.80;;;12.50;57.30;;;12.67;43.46;94944.84;5010636;28;20508;-62
2023/03/31 02:28:31;;;;;;;1.87;1.50;;;12.50;58.70;;;12.70;43.71;94936.63;5012325;28;20452;-56
2023/03/31 02:31:12;;;;;;;2.50;1.37;;;12.50;59.00;;;12.73;44.62;94939.81;5015600;28;20484;-58
2023/03/31 02:33:39;;;;;;;1.87;1.53;;;12.50;59.70;;;12.73;44.61;94954.78;5013354;28;20468;-64
2023/03/31 02:36:07;;;;;;;4.43;2.13;;;12.60;59.80;;;12.74;44.96;94964.38;5010403;28;21034;-64
2023/03/31 02:38:37;;;;;;;3.00;1.97;;;12.60;60.70;;;12.73;45.43;94960.06;5010279;28;20982;-63
2023/03/31 02:41:04;;;;;;;3.97;1.57;;;12.60;62.40;;;12.70;46.34;94948.03;5014358;28;20473;-64
2023/03/31 02:43:33;;;;;;;4.47;2.30;;;12.60;63.20;;;12.67;46.47;94958.03;5010452;28;20484;-58
2023/03/31 02:46:00;;;;;;;3.60;2.10;;;12.50;63.00;;;12.62;46.93;94955.03;5013620;28;20563;-63
2023/03/31 02:48:29;;;;;;;9.73;3.13;;;12.50;64.30;;;12.56;47.51;94943.25;5014211;28;20506;-64
2023/03/31 02:51:45;;;;;;;6.23;2.57;;;12.50;65.00;;;12.51;48.50;94946.34;5009474;28;20544;-63
2023/03/31 02:54:43;;;;;;;8.80;3.60;;;12.40;65.60;;;12.45;48.72;94933.75;5003734;28;20461;-58
2023/03/31 02:57:41;;;;;;;6.90;2.90;;;12.30;65.80;;;12.41;48.68;94926.28;5012497;28;20566;-63
2023/03/31 03:00:14;;;;;;;11.33;2.50;;;12.30;66.00;;;12.36;48.77;94919.66;5011110;28;20458;-57
2023/03/31 03:02:53;;;;;;;5.53;2.60;;;12.30;67.60;;;12.32;48.88;94918.31;5013822;28;20457;-57
2023/03/31 03:05:27;;;;;;;3.83;2.30;;;12.20;67.20;;;12.30;49.14;94916.78;5012111;28;20541;-57
2023/03/31 03:07:59;;;;;;;10.93;2.93;;;12.10;67.70;;;12.26;49.57;94912.81;5014470;28;20567;-57
2023/03/31 03:10:30;;;;;;;11.83;3.57;;;12.10;68.80;;;12.20;50.64;94912.41;5009796;28;20477;-64
2023/03/31 03:13:01;;;;;;;10.23;3.50;;;12.10;70.70;;;12.16;50.83;94894.38;5011151;28;20450;-64
2023/03/31 03:15:32;;;;;;;11.20;4.00;;;12.00;71.80;;;12.10;51.41;94890.56;5009619;28;20645;-57
2023/03/31 03:18:00;;;;;;;7.67;3.77;;;12.00;72.10;;;12.05;50.87;94890.16;5013150;28;20456;-63
2023/03/31 03:20:27;;;;;;;12.93;3.10;;;11.90;71.40;;;12.03;50.95;94886.84;5009684;28;20512;-56
2023/03/31 03:22:55;;;;;;;11.97;3.97;;;11.90;72.00;;;12.01;51.24;94894.91;5010576;28;20960;-64
2023/03/31 03:25:23;;;;;;;11.53;4.17;;;11.90;72.90;;;11.99;51.37;94893.38;5007569;28;20485;-60
2023/03/31 03:27:52;;;;;;;12.67;3.80;;;11.90;73.00;;;11.97;51.78;94887.44;5010305;28;20500;-55
2023/03/31 03:30:20;;;;;;;11.97;4.37;;;11.80;73.90;;;11.94;52.09;94888.56;5010129;28;20532;-64
2023/03/31 03:32:49;;;;;;;10.00;3.80;;;11.80;75.00;;;11.94;51.93;94887.72;5009991;28;20808;-63
2023/03/31 03:35:17;;;;;;;26.47;4.20;;;11.80;75.20;;;11.94;52.13;94893.00;5008336;28;20564;-64
2023/03/31 03:37:44;;;;;;;24.90;5.07;;;11.80;75.90;;;11.92;52.26;94887.03;5013603;28;20464;-56
2023/03/31 03:40:12;;;;;;;6.73;4.53;;;11.80;76.40;;;11.92;53.31;94889.66;5013785;28;20584;-57
2023/03/31 03:42:39;;;;;;;13.30;5.93;;;11.80;77.70;;;11.90;52.79;94888.97;5012531;28;20472;-57
2023/03/31 03:45:08;;;;;;;16.47;10.70;;;11.80;78.20;;;11.87;53.50;94884.00;4987939;28;20459;-63
2023/03/31 03:47:36;;;;;;;10.90;8.20;;;11.80;79.40;;;11.83;52.63;94881.69;4988861;28;20498;-55
2023/03/31 03:50:05;;;;;;;17.67;8.47;;;11.70;79.00;;;11.81;53.43;94882.78;4989984;28;20553;-57
2023/03/31 03:52:33;;;;;;;12.43;6.57;;;11.70;80.50;;;11.78;53.13;94873.38;4992508;28;20449;-54
2023/03/31 03:55:02;;;;;;;18.57;5.33;;;11.70;80.30;;;11.76;53.70;94883.22;4996318;28;20481;-55
2023/03/31 03:57:29;;;;;;;17.30;5.33;;;11.60;81.10;;;11.73;53.67;94880.06;4996573;28;20454;-57
2023/03/31 03:59:56;;;;;;;15.47;4.60;;;11.60;82.30;;;11.71;53.62;94884.63;4995296;28;20449;-65
2023/03/31 04:02:24;;;;;;;14.50;4.90;;;11.60;82.00;;;11.71;53.91;94887.28;4998004;28;20462;-64
2023/03/31 04:04:51;;;;;;;10.10;4.20;;;11.60;82.70;;;11.70;53.88;94890.91;4997514;28;20538;-57
2023/03/31 04:07:20;;;;;;;10.90;4.73;;;11.60;83.00;;;11.69;53.95;94889.22;4998627;28;20493;-57
2023/03/31 04:09:47;;;;;;;12.03;6.30;;;11.60;83.40;;;11.68;54.14;94888.41;4996518;28;20458;-57
2023/03/31 04:12:14;;;;;;;20.13;7.83;;;11.50;83.50;;;11.68;54.69;94891.03;4998404;28;20493;-62
2023/03/31 04:14:42;;;;;;;21.70;8.13;;;11.60;85.60;;;11.68;54.97;94893.69;4997418;28;20473;-63
2023/03/31 04:17:14;;;;;;;18.90;6.90;;;11.60;86.20;;;11.68;54.43;94891.03;4995969;28;20552;-64
2023/03/31 04:19:42;;;;;;;8.33;5.00;;;11.50;85.50;;;11.66;54.60;94883.28;4996475;28;20449;-57
2023/03/31 04:22:10;;;;;;;13.70;5.00;;;11.50;85.70;;;11.70;54.56;94886.44;4997435;28;20537;-64
2023/03/31 04:24:39;;;;;;;8.33;4.97;;;11.60;86.20;;;11.72;55.20;94883.66;5000206;28;20461;-64
2023/03/31 04:27:07;;;;;;;15.73;5.43;;;11.60;88.10;;;11.74;55.08;94889.63;4997905;28;20501;-56
2023/03/31 04:29:36;;;;;;;18.33;4.43;;;11.60;87.90;;;11.75;54.83;94884.19;4999941;28;20528;-64
2023/03/31 04:32:03;;;;;;;9.80;4.00;;;11.60;87.60;;;11.76;55.02;94877.13;4994597;28;20473;-57
2023/03/31 04:34:34;;;;;;;7.50;3.10;;;11.60;88.60;;;11.76;55.25;94877.97;4996105;28;20489;-64
2023/03/31 04:37:02;;;;;;;13.30;4.77;;;11.60;89.00;;;11.77;54.88;94877.00;4993887;28;20486;-57
2023/03/31 04:39:30;;;;;;;20.90;2.80;;;11.60;88.10;;;11.76;55.63;94870.06;5000650;28;20501;-55
2023/03/31 04:41:59;;;;;;;4.60;2.63;;;11.60;90.10;;;11.74;54.51;94874.66;4994313;28;20482;-64
2023/03/31 04:44:27;;;;;;;11.83;3.40;;;11.60;87.80;;;11.72;54.93;94865.22;5006305;28;20476;-56
2023/03/31 04:46:54;;;;;;;17.10;3.00;;;11.60;88.40;;;11.70;54.58;94870.66;5014540;28;20539;-57
2023/03/31 04:49:22;;;;;;;14.43;3.60;;;11.60;88.30;;;11.68;54.34;94869.97;5018304;28;20824;-57
2023/03/31 04:51:49;;;;;;;9.23;3.03;;;11.60;87.60;;;11.68;54.29;94867.34;5013713;28;21001;-58
2023/03/31 04:54:16;;;;;;;4.07;3.73;;;11.50;87.20;;;11.68;54.52;94859.44;5014534;28;20452;-62
2023/03/31 04:56:44;;;;;;;8.17;4.33;;;11.60;88.00;;;11.71;54.18;94867.03;5010354;28;20481;-56
2023/03/31 04:59:13;;;;;;;4.57;2.30;;;11.60;87.20;;;11.74;53.68;94861.47;5014515;28;20456;-59
2023/03/31 05:01:44;;;;;;;8.70;2.47;;;11.60;86.70;;;11.78;53.14;94851.47;5011888;28;20551;-63
2023/03/31 05:04:12;;;;;;;5.27;1.97;;;11.60;84.90;;;11.83;52.77;94855.31;5014647;28;20527;-57
2023/03/31 05:06:39;;;;;;;2.30;1.90;;;11.70;83.70;;;11.90;51.81;94849.44;5017515;28;20501;-57
2023/03/31 05:09:08;;;;;;;1.60;1.40;;;11.70;82.20;;;11.98;51.51;94846.94;5012771;28;20453;-62
2023/03/31 05:11:36;;;;;;;4.03;1.60;;;11.80;81.10;;;12.04;51.38;94841.06;5013096;28;20481;-56
2023/03/31 05:14:04;;;;;;;2.27;1.30;;;11.90;80.20;;;12.10;50.53;94844.88;5012714;28;20449;-55
2023/03/31 05:16:33;;;;;;;3.83;1.40;;;11.90;78.60;;;12.15;50.21;94847.94;5016177;28;20462;-61
2023/03/31 05:19:00;;;;;;;4.67;1.87;;;12.00;77.70;;;12.21;50.07;94844.69;5019911;28;20448;-62
2023/03/31 05:21:29;;;;;;;4.70;1.57;;;12.10;77.80;;;12.29;49.66;94833.38;5016623;28;20473;-57
2023/03/31 05:23:56;;;;;;;3.70;2.20;;;12.10;77.00;;;12.37;49.86;94834.28;5019955;28;20814;-57
2023/03/31 05:26:24;;;;;;;5.67;2.67;;;12.20;76.80;;;12.45;50.15;94843.25;5014142;28;20465;-62
2023/03/31 05:28:51;;;;;;;4.40;2.30;;;12.30;77.90;;;12.51;50.21;94835.53;5015688;28;20460;-57
2023/03/31 05:31:19;;;;;;;9.20;2.00;;;12.30;78.00;;;12.59;49.79;94841.88;5014607;28;20474;-65
2023/03/31 05:33:48;;;;;;;11.77;3.70;;;12.40;77.70;;;12.66;49.83;94832.38;5014060;28;20461;-62
2023/03/31 05:36:16;;;;;;;3.77;2.10;;;12.50;77.50;;;12.72;49.75;94829.94;5014748;28;20484;-62
2023/03/31 05:38:44;;;;;;;12.20;2.03;;;12.50;77.40;;;12.80;49.14;94829.16;5018224;28;20484;-62
2023/03/31 05:41:12;;;;;;;1.57;1.40;;;12.60;75.90;;;12.86;48.89;94825.91;5017303;28;20846;-58
2023/03/31 05:43:39;;;;;;;5.93;2.20;;;12.70;74.90;;;13.00;48.95;94832.44;5017514;28;20460;-56
2023/03/31 05:46:07;;;;;;;8.00;1.47;;;12.80;75.00;;;13.15;48.49;94830.06;5014391;28;20543;-62
2023/03/31 05:48:34;;;;;;;5.33;2.10;;;12.90;74.50;;;13.26;48.40;94832.41;5015746;28;21038;-57
2023/03/31 05:51:03;;;;;;;15.13;2.30;;;13.00;73.90;;;13.36;48.44;94827.03;5014845;28;21226;-62
2023/03/31 05:53:30;;;;;;;2.80;1.80;;;13.10;73.80;;;13.46;48.18;94832.19;5018466;28;20462;-61
2023/03/31 05:55:58;;;;;;;3.50;1.93;;;13.20;73.40;;;13.55;47.97;94841.00;5014666;28;20484;-57
2023/03/31 05:58:26;;;;;;;6.23;1.83;;;13.30;73.10;;;13.61;48.02;94841.19;5016168;28;20826;-56
2023/03/31 06:01:04;;;;;;;15.63;2.50;;;13.40;73.10;;;13.67;48.13;94830.97;5014763;28;20500;-57
2023/03/31 06:03:32;;;;;;;5.50;2.00;;;13.50;72.90;;;13.71;47.46;94843.72;5015810;28;20438;-62
2023/03/31 06:06:00;;;;;;;5.83;2.30;;;13.50;72.50;;;13.73;47.93;94835.63;5014046;28;20479;-62
2023/03/31 06:08:29;;;;;;;6.83;1.83;;;13.60;72.70;;;13.80;47.60;94839.28;5011875;28;20599;-63
2023/03/31 06:10:56;;;;;;;3.20;2.17;;;13.60;72.80;;;13.83;47.91;94843.41;5020872;28;20491;-63
2023/03/31 06:13:24;;;;;;;6.67;3.47;;;13.60;72.70;;;13.86;48.46;94838.63;5010637;28;21007;-57
2023/03/31 06:15:54;;;;;;;5.90;2.10;;;13.70;74.30;;;13.93;48.32;94836.19;5014008;28;20485;-57
2023/03/31 06:18:22;;;;;;;3.27;1.77;;;13.70;73.50;;;13.99;47.82;94844.28;5010665;28;20866;-58
2023/03/31 06:20:49;;;;;;;3.93;2.27;;;13.80;72.40;;;14.05;47.88;94839.34;5014378;28;21101;-63
2023/03/31 06:23:16;;;;;;;4.60;2.57;;;13.80;72.50;;;14.17;48.05;94835.41;5011471;28;20453;-60
2023/03/31 06:25:45;;;;;;;4.47;2.57;;;13.90;73.30;;;14.30;47.71;94835.75;5012417;28;20472;-56
2023/03/31 06:28:13;;;;;;;10.60;2.60;;;14.00;72.40;;;14.46;47.13;94828.81;5010787;28;20508;-62
2023/03/31 06:30:40;;;;;;;8.10;2.60;;;14.20;71.80;;;14.63;47.25;94834.97;5013858;28;20878;-57
2023/03/31 06:33:07;;;;;;;6.00;2.67;;;14.30;71.60;;;14.85;46.46;94838.78;5010323;28;20461;-62
2023/03/31 06:35:37;;;;;;;8.53;3.17;;;14.50;70.20;;;15.07;46.23;94842.53;5019114;28;20478;-57
2023/03/31 06:38:05;;;;;;;9.80;2.47;;;14.70;70.20;;;15.33;46.07;94838.84;5013341;28;20998;-57
2023/03/31 06:40:32;;;;;;;12.07;2.70;;;15.00;70.70;;;15.60;45.17;94832.31;5012916;28;20480;-63
2023/03/31 06:43:01;;;;;;;3.23;2.03;;;15.20;68.20;;;15.76;44.62;94836.72;5009943;28;20986;-62
2023/03/31 06:45:28;;;;;;;7.53;2.53;;;15.40;67.20;;;15.87;44.45;94841.66;5017632;28;20481;-63
2023/03/31 06:47:56;;;;;;;4.93;3.13;;;15.60;66.40;;;15.93;44.05;94842.81;5015912;28;20560;-58
2023/03/31 06:50:23;;;;;;;3.70;2.00;;;15.60;65.30;;;15.94;43.84;94842.63;5016566;28;20506;-58
2023/03/31 06:52:53;;;;;;;5.03;2.53;;;15.70;64.90;;;15.96;43.74;94845.09;5017140;28;20461;-57
2023/03/31 06:55:21;;;;;;;10.33;2.90;;;15.70;64.10;;;16.00;43.55;94846.41;5015753;28;20469;-63
2023/03/31 06:57:48;;;;;;;6.33;3.70;;;15.80;64.20;;;16.05;43.59;94845.88;5017037;28;20940;-57
2023/03/31 07:00:18;;;;;;;7.37;3.10;;;15.80;64.00;;;16.05;43.33;94836.09;5016945;28;21002;-57
2023/03/31 07:02:46;;;;;;;12.43;3.30;;;15.80;63.20;;;16.01;43.49;94821.53;5014139;28;20452;-62
2023/03/31 07:05:13;;;;;;;7.33;3.23;;;15.80;62.90;;;16.01;43.13;94797.66;5013983;28;20476;-58
2023/03/31 07:07:41;;;;;;;11.93;2.40;;;15.80;62.20;;;16.12;42.70;94799.06;5016227;28;20522;-63
2023/03/31 07:10:09;;;;;;;6.90;3.00;;;15.90;62.30;;;16.33;42.67;94803.75;5016058;28;20460;-57
2023/03/31 07:12:36;;;;;;;8.23;2.60;;;16.00;62.10;;;16.64;42.21;94789.59;5017699;28;20578;-57
2023/03/31 07:15:04;;;;;;;13.57;2.53;;;16.30;61.70;;;16.97;41.56;94776.03;5014116;28;20457;-58
2023/03/31 07:17:32;;;;;;;15.07;3.27;;;16.50;61.10;;;17.33;41.53;94762.00;5016099;28;21036;-58
2023/03/31 07:20:00;;;;;;;7.90;2.73;;;16.90;60.80;;;17.72;40.92;94775.00;5012438;28;20464;-56
2023/03/31 07:22:27;;;;;;;6.63;2.80;;;17.30;60.30;;;18.09;40.35;94777.66;5014906;28;20448;-62
2023/03/31 07:24:55;;;;;;;4.07;2.40;;;17.60;59.40;;;18.53;40.47;94774.00;5015222;28;20518;-57
2023/03/31 07:27:22;;;;;;;13.97;3.30;;;18.00;59.10;;;19.04;40.00;94767.66;5018156;28;20497;-56
2023/03/31 07:29:49;;;;;;;16.60;3.87;;;18.50;58.70;;;19.40;38.94;94772.00;5016043;28;20903;-62
2023/03/31 07:32:17;;;;;;;8.77;3.47;;;18.90;58.10;;;19.68;38.05;94769.25;5016508;28;20493;-57
2023/03/31 07:34:46;;;;;;;10.03;3.77;;;19.20;56.60;;;19.79;38.44;94775.06;5014411;28;20453;-62
2023/03/31 07:37:13;;;;;;;9.17;4.07;;;19.30;56.20;;;19.90;38.11;94777.16;5017159;28;20539;-63
2023/03/31 07:39:40;;;;;;;8.20;3.80;;;19.50;55.80;;;20.10;38.16;94765.72;5014264;28;20503;-62
2023/03/31 07:42:08;;;;;;;11.03;4.53;;;19.70;55.40;;;20.34;37.56;94767.00;5021941;28;20794;-62
2023/03/31 07:44:36;;;;;;;6.10;3.67;;;19.90;54.50;;;20.58;36.89;94771.75;5015479;28;20465;-56
2023/03/31 07:47:05;;;;;;;9.60;3.30;;;20.10;54.50;;;20.90;37.12;94769.34;5022106;28;20569;-62
2023/03/31 07:49:32;;;;;;;5.23;3.47;;;20.50;54.00;;;21.36;36.62;94770.28;5016085;28;21004;-63
2023/03/31 07:52:01;;;;;;;15.57;3.10;;;20.90;53.90;;;21.94;35.18;94772.19;5014834;28;20481;-56
2023/03/31 07:54:28;;;;;;;7.33;2.63;;;21.50;52.10;;;22.42;35.37;94773.63;5016616;28;20440;-62
2023/03/31 07:56:55;;;;;;;6.77;2.93;;;22.00;52.50;;;22.97;33.99;94774.88;5013751;28;20469;-62
2023/03/31 07:59:23;;;;;;;17.37;3.70;;;22.60;51.00;;;23.50;34.93;94774.41;5017382;28;20483;-64
2023/03/31 08:01:50;;;;;;;3.00;2.70;;;23.20;51.40;;;23.92;33.83;94773.72;5013404;28;20529;-58
2023/03/31 08:04:17;;;;;;;5.40;2.97;;;23.60;49.70;;;23.98;32.39;94770.97;5016477;28;20456;-55
2023/03/31 08:06:45;;;;;;;3.00;2.20;;;23.80;48.40;;;24.01;33.12;94771.56;5019045;28;20503;-58
2023/03/31 08:09:14;;;;;;;8.10;2.30;;;23.90;48.60;;;24.28;33.37;94758.63;5015315;28;20488;-63
2023/03/31 08:11:41;;;;;;;14.73;2.80;;;24.00;48.70;;;24.51;32.16;94758.69;5015549;28;20595;-57
2023/03/31 08:14:08;;;;;;;7.03;2.40;;;24.20;47.80;;;24.40;31.44;94755.94;5018277;28;20556;-64
2023/03/31 08:16:36;;;;;;;8.27;3.83;;;24.20;46.20;;;24.21;31.89;94753.31;5016579;28;20477;-64
2023/03/31 08:19:03;;;;;;;8.00;2.67;;;24.10;46.90;;;24.12;31.37;94743.91;5017997;28;20697;-63
2023/03/31 08:21:31;;;;;;;9.53;3.10;;;24.00;45.90;;;24.11;31.92;94758.44;5018413;28;20481;-63
2023/03/31 08:23:58;;;;;;;10.93;3.60;;;24.00;46.20;;;24.26;31.29;94750.78;5019711;28;20555;-62
2023/03/31 08:26:27;;;;;;;7.87;2.63;;;24.10;45.50;;;24.52;32.41;94746.88;5018194;28;20698;-57
2023/03/31 08:28:54;;;;;;;3.90;2.77;;;24.40;46.20;;;24.94;31.02;94739.84;5019905;28;20496;-61
2023/03/31 08:31:24;;;;;;;5.83;2.53;;;24.80;45.30;;;25.30;30.63;94752.28;5018308;28;20468;-57
2023/03/31 08:33:51;;;;;;;11.63;2.70;;;25.20;44.80;;;25.53;29.78;94747.91;5016913;28;20456;-58
2023/03/31 08:36:19;;;;;;;10.30;2.77;;;25.60;43.70;;;25.70;29.73;94748.00;5015928;28;20483;-57
2023/03/31 08:38:48;;;;;;;32.17;3.80;;;25.70;43.00;;;25.91;29.36;94738.47;5020820;28;20523;-59
2023/03/31 08:41:33;;;;;;;7.10;2.87;;;25.90;42.80;;;26.22;28.88;94739.09;5016730;28;20473;-63
2023/03/31 08:44:01;;;;;;;6.47;2.43;;;26.10;42.70;;;26.40;28.87;94741.59;5015653;28;20450;-57
2023/03/31 08:46:30;;;;;;;9.67;3.30;;;26.30;42.30;;;26.34;28.83;94742.56;5016402;28;20462;-57
2023/03/31 08:48:58;;;;;;;15.40;2.60;;;26.20;41.80;;;26.07;29.00;94743.16;5014597;28;20508;-57
2023/03/31 08:51:28;;;;;;;9.03;2.20;;;26.10;41.70;;;25.65;28.79;94727.16;5017602;28;20474;-63
2023/03/31 08:53:59;;;;;;;8.47;2.60;;;25.70;41.20;;;25.47;29.33;94717.38;5017430;28;20446;-63
2023/03/31 08:56:26;;;;;;;5.10;1.77;;;25.50;41.60;;;25.56;28.82;94726.75;5021495;28;20468;-57
2023/03/31 08:59:00;;;;;;;11.40;1.60;;;25.30;41.40;;;25.40;28.42;94724.75;5016247;28;20469;-63
2023/03/31 09:01:36;;;;;;;6.20;1.87;;;25.20;41.50;;;24.97;27.49;94713.31;5020098;28;20511;-63
2023/03/31 09:04:21;;;;;;;5.27;2.47;;;24.80;39.70;;;24.32;28.88;94714.91;5015413;28;20457;-58
2023/03/31 09:06:53;;;;;;;3.93;1.80;;;24.30;41.40;;;23.77;30.00;94721.19;5012210;28;20847;-63
2023/03/31 09:09:28;;;;;;;11.03;2.03;;;23.80;41.80;;;23.41;30.04;94717.50;5011843;28;20480;-63
2023/03/31 09:11:58;;;;;;;11.33;2.30;;;23.30;42.70;;;23.18;30.17;94715.47;5012963;28;20477;-63
2023/03/31 09:14:31;;;;;;;8.13;1.93;;;23.00;42.70;;;22.92;30.56;94703.09;5014333;28;20442;-63
2023/03/31 09:17:10;;;;;;;8.57;2.53;;;22.70;43.20;;;22.67;30.60;94711.19;5012551;28;20473;-63
2023/03/31 09:19:39;;;;;;;4.27;1.73;;;22.50;43.30;;;22.41;30.90;94706.84;5018159;28;20469;-56
2023/03/31 09:22:11;;;;;;;5.33;2.07;;;22.20;43.50;;;22.23;31.54;94703.03;5013592;28;20477;-62
2023/03/31 09:24:52;;;;;;;4.17;2.50;;;22.00;44.10;;;22.15;31.08;94697.91;5014624;28;20477;-64
2023/03/31 09:27:19;;;;;;;3.87;2.50;;;21.80;44.00;;;21.94;31.34;94701.75;5014134;28;20464;-63
2023/03/31 09:29:50;;;;;;;4.10;1.97;;;21.60;43.80;;;21.69;31.65;94697.16;5016543;28;20528;-58
2023/03/31 09:32:19;;;;;;;5.67;2.00;;;21.40;44.30;;;21.55;32.10;94707.09;5014990;28;20934;-63
2023/03/31 09:34:47;;;;;;;5.57;2.27;;;21.20;44.50;;;21.38;32.12;94703.19;5016109;28;20450;-63
2023/03/31 09:37:14;;;;;;;9.67;2.07;;;21.10;44.80;;;21.19;32.17;94704.91;5017939;28;20892;-63
2023/03/31 09:39:41;;;;;;;8.63;2.67;;;20.90;45.00;;;20.95;32.64;94699.19;5013916;28;20523;-58
2023/03/31 09:42:11;;;;;;;3.23;1.70;;;20.70;45.10;;;20.77;32.41;94700.69;5018700;28;20470;-64
2023/03/31 09:44:39;;;;;;;8.23;2.00;;;20.50;45.20;;;20.90;33.07;94691.81;5011662;28;20454;-63
2023/03/31 09:47:13;;;;;;;4.70;2.00;;;20.60;46.10;;;21.04;32.64;94681.91;5017857;28;21025;-58
2023/03/31 09:49:41;;;;;;;5.57;2.00;;;20.60;45.90;;;21.13;32.90;94682.47;5015575;28;20485;-58
2023/03/31 09:52:26;;;;;;;6.10;1.63;;;20.70;45.90;;;21.37;32.83;94675.63;5017269;28;20485;-63
2023/03/31 09:54:54;;;;;;;9.80;2.60;;;20.90;46.20;;;21.65;32.57;94671.84;5016683;28;20457;-63
2023/03/31 09:57:25;;;;;;;2.20;1.70;;;21.20;46.10;;;21.73;32.29;94676.13;5015176;28;21448;-57
2023/03/31 09:59:53;;;;;;;2.60;1.73;;;21.30;45.50;;;21.67;31.94;94669.75;5016701;28;20453;-63
2023/03/31 10:02:34;;;;;;;6.33;2.13;;;21.30;45.10;;;21.63;32.64;94674.72;5013378;28;20469;-57
2023/03/31 10:05:02;;;;;;;2.70;2.07;;;21.30;45.70;;;21.65;32.13;94661.94;5012766;28;20510;-63
2023/03/31 10:07:30;;;;;;;11.83;2.23;;;21.30;45.50;;;21.59;31.83;94661.97;5017246;28;20449;-57
2023/03/31 10:09:57;;;;;;;9.50;2.10;;;21.20;45.00;;;21.46;32.26;94660.97;5016489;28;20492;-64
2023/03/31 10:12:26;;;;;;;5.63;1.93;;;21.10;45.10;;;21.36;32.46;94657.09;5015422;28;20475;-57
2023/03/31 10:14:55;;;;;;;3.23;1.90;;;21.00;45.80;;;21.27;33.06;94653.84;5012367;28;20457;-57
2023/03/31 10:17:23;;;;;;;4.30;2.03;;;21.00;46.30;;;21.21;33.31;94652.00;5014706;28;20452;-61
2023/03/31 10:19:54;;;;;;;5.57;2.20;;;20.90;46.80;;;21.12;33.48;94649.56;5012500;28;20472;-62
2023/03/31 10:22:28;;;;;;;8.43;2.50;;;20.80;46.70;;;21.00;33.62;94647.78;5018529;28;20456;-63
2023/03/31 10:25:07;;;;;;;6.10;1.90;;;20.70;47.00;;;20.88;33.85;94642.25;5019087;28;20464;-64
2023/03/31 10:27:34;;;;;;;4.67;1.90;;;20.60;46.90;;;20.76;33.89;94642.06;5015257;28;20972;-63
2023/03/31 10:30:04;;;;;;;7.60;2.53;;;20.50;47.20;;;20.65;34.27;94635.50;5011545;28;20501;-58